Time;durP1;ratioP1;P1;durP2;ratioP2;P2;SDS_P1;SDS_P2;PMS_P1;PMS_P2;Temp;Humidity;BMP_temperature;BMP_pressure;BME280_temperature;BME280_humidity;BME280_pressure;Samples;Min_cycle;Max_cycle;Signal;HPM_P1;HPM_P2
2021/11/20 00:01:50;;;;;;;19.25;7.03;;;;;;;1.47;80.21;96733.31;6217467;23;20025;-80
2021/11/20 00:04:16;;;;;;;22.90;7.43;;;;;;;1.49;80.23;96731.16;6186857;23;20052;-80
2021/11/20 00:06:45;;;;;;;20.42;7.38;;;;;;;1.48;80.37;96740.31;6212187;23;20024;-80
2021/11/20 00:09:15;;;;;;;22.88;8.05;;;;;;;1.45;80.36;96714.78;6211624;23;20051;-80
2021/11/20 00:11:44;;;;;;;20.35;7.25;;;;;;;1.45;80.58;96703.19;6212205;23;20063;-80
2021/11/20 00:14:14;;;;;;;24.10;7.47;;;;;;;1.42;80.79;96701.91;6224385;23;20111;-80
2021/11/20 00:16:43;;;;;;;24.77;7.60;;;;;;;1.52;80.29;96699.03;6187638;23;20103;-80
2021/11/20 00:19:10;;;;;;;22.13;7.00;;;;;;;1.53;80.16;96678.31;6221447;23;20077;-80
2021/11/20 00:21:42;;;;;;;25.90;7.90;;;;;;;1.54;79.95;96671.84;6220707;23;20043;-80
2021/11/20 00:24:19;;;;;;;20.85;7.30;;;;;;;1.50;80.06;96662.75;6187485;23;20031;-80
2021/11/20 00:26:46;;;;;;;20.25;7.10;;;;;;;1.47;80.31;96645.28;6217228;23;20024;-80
2021/11/20 00:31:43;;;;;;;23.30;8.13;;;;;;;1.44;80.42;96640.47;6213906;23;20454;-80
2021/11/20 00:34:17;;;;;;;28.20;8.65;;;;;;;1.44;80.56;96639.66;6222337;23;20027;-80
2021/11/20 00:36:44;;;;;;;25.23;8.10;;;;;;;1.42;80.70;96623.81;6217276;23;20040;-80
2021/11/20 00:39:15;;;;;;;20.60;7.15;;;;;;;1.35;80.51;96599.16;6187432;23;20028;-80
2021/11/20 00:41:45;;;;;;;23.27;9.15;;;;;;;1.43;80.38;96603.88;6187202;23;20039;-82
2021/11/20 00:44:12;;;;;;;22.73;7.60;;;;;;;1.33;80.42;96560.94;6172502;23;20027;-84
2021/11/20 00:46:38;;;;;;;22.70;7.77;;;;;;;1.33;80.34;96558.25;6217216;23;20078;-83
2021/11/20 00:49:06;;;;;;;18.15;6.32;;;;;;;1.30;80.58;96553.47;6138365;23;20330;-84
2021/11/20 00:51:32;;;;;;;21.60;7.30;;;;;;;1.42;80.39;96549.22;6187476;23;20051;-83
2021/11/20 00:53:59;;;;;;;24.20;7.75;;;;;;;1.32;80.33;96527.84;6162516;23;20032;-84
2021/11/20 00:56:27;;;;;;;21.60;8.40;;;;;;;1.41;80.34;96525.28;6162655;23;20024;-84
2021/11/20 00:58:55;;;;;;;18.38;6.28;;;;;;;1.39;80.29;96522.06;6222537;23;20396;-84
2021/11/20 01:01:24;;;;;;;24.38;8.20;;;;;;;1.33;80.60;96517.88;6161606;23;20072;-85
2021/11/20 01:03:51;;;;;;;22.77;7.85;;;;;;;1.28;80.62;96499.91;6219091;23;20024;-84
2021/11/20 01:06:18;;;;;;;24.13;8.10;;;;;;;1.30;80.67;96496.94;6221009;23;20017;-83
2021/11/20 01:08:47;;;;;;;18.35;6.75;;;;;;;1.29;80.69;96485.34;6222367;23;20051;-84
2021/11/20 01:11:18;;;;;;;21.00;7.40;;;;;;;1.34;80.53;96484.47;6203956;23;20024;-81
2021/11/20 01:13:44;;;;;;;18.30;7.10;;;;;;;1.28;80.74;96475.69;6142686;23;20025;-82
2021/11/20 01:16:12;;;;;;;18.50;7.28;;;;;;;1.28;80.50;96456.84;6190035;23;20100;-82
2021/11/20 01:18:39;;;;;;;18.00;6.97;;;;;;;1.36;80.36;96458.06;6166718;23;20017;-81
2021/11/20 01:21:14;;;;;;;19.73;6.72;;;;;;;1.37;80.39;96435.41;6141181;23;20362;-85
2021/11/20 01:23:42;;;;;;;21.00;7.45;;;;;;;1.35;80.33;96429.53;6132259;23;20128;-85
2021/11/20 01:26:13;;;;;;;26.83;7.82;;;;;;;1.25;80.38;96417.88;6189548;23;20032;-84
2021/11/20 01:28:52;;;;;;;20.42;7.18;;;;;;;1.22;80.44;96420.34;6144679;23;20474;-81
2021/11/20 01:31:37;;;;;;;17.95;6.57;;;;;;;1.24;80.59;96392.03;6156116;23;20028;-82
2021/11/20 01:34:05;;;;;;;17.95;7.10;;;;;;;1.25;80.26;96387.47;6166618;23;20045;-82
2021/11/20 01:36:33;;;;;;;21.98;7.57;;;;;;;1.27;80.44;96374.50;6187777;23;20107;-81
2021/11/20 01:39:04;;;;;;;17.30;6.25;;;;;;;1.30;80.20;96383.88;6193449;23;20025;-83
2021/11/20 01:41:36;;;;;;;16.38;6.63;;;;;;;1.31;80.31;96363.94;6108457;23;20044;-81
2021/11/20 01:44:33;;;;;;;13.60;5.85;;;;;;;1.27;80.68;96351.09;6157138;23;20032;-81
2021/11/20 01:47:16;;;;;;;18.08;5.95;;;;;;;1.27;80.59;96363.72;6161275;23;20021;-82
2021/11/20 01:49:48;;;;;;;17.63;6.10;;;;;;;1.23;80.58;96341.97;6142344;23;20025;-84
2021/11/20 01:52:19;;;;;;;18.42;6.45;;;;;;;1.20;80.85;96312.97;6136245;23;20095;-86
2021/11/20 01:54:59;;;;;;;15.55;6.03;;;;;;;1.23;80.94;96282.78;6180501;23;20033;-85
2021/11/20 01:57:41;;;;;;;16.75;5.93;;;;;;;1.21;80.81;96265.34;6161023;23;20057;-84
2021/11/20 02:00:16;;;;;;;18.23;6.50;;;;;;;1.21;80.75;96266.13;6180542;23;20029;-84
2021/11/20 02:02:56;;;;;;;16.23;6.38;;;;;;;1.33;80.59;96265.63;6156876;23;20028;-84
2021/11/20 02:05:41;;;;;;;16.65;5.72;;;;;;;1.18;80.81;96247.13;6181264;23;20025;-85
2021/11/20 02:08:21;;;;;;;16.58;5.53;;;;;;;1.26;80.85;96263.34;6155647;23;20400;-84
2021/11/20 02:10:52;;;;;;;18.63;5.78;;;;;;;1.27;80.31;96240.72;6170190;23;20021;-85
2021/11/20 02:13:26;;;;;;;18.80;5.15;;;;;;;1.20;80.43;96226.84;6211211;23;20024;-84
2021/11/20 02:15:59;;;;;;;17.55;5.47;;;;;;;1.27;80.65;96215.69;6222537;23;20059;-85
2021/11/20 02:18:30;;;;;;;14.68;5.38;;;;;;;1.26;80.39;96206.03;6210862;23;20585;-83
2021/11/20 02:21:07;;;;;;;17.02;5.60;;;;;;;1.30;80.43;96198.16;6169652;23;20078;-85
2021/11/20 02:23:40;;;;;;;17.20;6.85;;;;;;;1.27;80.21;96203.03;6210878;23;20082;-85
2021/11/20 02:26:06;;;;;;;15.65;5.28;;;;;;;1.23;80.21;96187.78;6219801;23;20307;-86
2021/11/20 02:28:56;;;;;;;15.07;5.63;;;;;;;1.20;80.38;96166.88;6210160;23;20024;-85
2021/11/20 02:31:56;;;;;;;12.60;5.05;;;;;;;1.20;80.23;96175.72;6105751;23;20093;-86
2021/11/20 02:34:36;;;;;;;13.20;4.70;;;;;;;1.18;80.41;96166.38;6182758;23;20091;-86
2021/11/20 02:37:07;;;;;;;11.82;4.28;;;;;;;1.12;80.40;96144.16;6209224;23;20051;-86
2021/11/20 02:39:38;;;;;;;13.68;5.63;;;;;;;1.10;80.52;96144.44;6208826;23;20541;-86
2021/11/20 02:42:07;;;;;;;11.20;4.53;;;;;;;1.11;80.41;96124.50;6184870;23;20032;-85
2021/11/20 02:44:35;;;;;;;11.02;4.45;;;;;;;1.05;80.44;96104.22;6134982;23;20278;-84
2021/11/20 02:47:06;;;;;;;10.80;4.18;;;;;;;0.98;80.55;96084.97;6209698;23;20016;-83
2021/11/20 02:49:35;;;;;;;13.00;4.65;;;;;;;1.06;80.51;96091.53;6211494;23;20028;-84
2021/11/20 02:52:14;;;;;;;11.45;4.55;;;;;;;1.02;80.34;96101.31;6210270;23;20361;-83
2021/11/20 02:54:43;;;;;;;12.57;4.75;;;;;;;0.99;80.51;96087.38;6218079;23;20472;-85
2021/11/20 02:57:12;;;;;;;13.90;4.85;;;;;;;1.01;80.67;96076.31;6208968;23;20025;-84
2021/11/20 02:59:39;;;;;;;11.73;4.82;;;;;;;1.02;80.65;96074.41;6169244;23;20115;-85
2021/11/20 03:02:10;;;;;;;13.35;5.25;;;;;;;0.98;80.50;96056.19;6214090;23;20021;-86
2021/11/20 03:04:37;;;;;;;11.75;4.22;;;;;;;0.94;80.58;96041.78;6218316;23;20472;-81
2021/11/20 03:07:03;;;;;;;15.60;4.88;;;;;;;1.02;80.58;96039.44;6189019;23;20025;-84
2021/11/20 03:09:31;;;;;;;11.73;4.57;;;;;;;1.05;80.53;96031.56;6210075;23;20506;-81
2021/11/20 03:12:06;;;;;;;12.25;4.35;;;;;;;1.05;80.27;96028.88;6214319;23;20020;-79
2021/11/20 03:14:33;;;;;;;14.68;4.78;;;;;;;1.00;80.42;96020.91;6160497;23;20033;-79
2021/11/20 03:17:01;;;;;;;12.43;4.05;;;;;;;1.07;80.26;96013.22;6188213;23;20032;-78
2021/11/20 03:19:31;;;;;;;12.57;4.30;;;;;;;1.05;80.39;96001.16;6195016;23;20171;-78
2021/11/20 03:22:00;;;;;;;11.52;4.30;;;;;;;1.11;80.19;95992.66;6215305;23;20023;-78
2021/11/20 03:24:27;;;;;;;11.95;4.38;;;;;;;1.09;80.08;95984.09;6221897;23;20100;-77
2021/11/20 03:26:57;;;;;;;13.27;5.22;;;;;;;1.08;80.05;95987.09;6189922;23;20044;-74
2021/11/20 03:29:25;;;;;;;15.18;5.00;;;;;;;1.12;80.12;95974.63;6219937;23;20119;-74
2021/11/20 03:31:54;;;;;;;14.13;4.45;;;;;;;1.03;80.18;95960.31;6161860;23;20020;-75
2021/11/20 03:34:21;;;;;;;15.02;4.45;;;;;;;1.12;80.17;95948.50;6195852;23;20028;-76
2021/11/20 03:36:50;;;;;;;14.23;4.35;;;;;;;1.10;80.19;95926.50;6216180;23;20461;-74
2021/11/20 03:39:22;;;;;;;15.65;4.90;;;;;;;1.12;79.98;95934.28;6211311;23;20086;-75
2021/11/20 03:41:48;;;;;;;14.77;4.93;;;;;;;1.11;79.84;95911.94;6189078;23;20099;-75
2021/11/20 03:44:16;;;;;;;14.45;4.50;;;;;;;1.12;80.05;95904.69;6184866;23;20039;-74
2021/11/20 03:46:45;;;;;;;11.75;3.92;;;;;;;1.13;79.89;95898.19;6159543;23;20505;-74
2021/11/20 03:49:12;;;;;;;13.60;4.65;;;;;;;1.10;79.87;95893.44;6208357;23;20025;-73
2021/11/20 03:51:39;;;;;;;11.90;4.18;;;;;;;1.08;80.10;95891.03;6209296;23;20074;-75
2021/11/20 03:54:09;;;;;;;17.58;4.45;;;;;;;1.09;80.15;95879.16;6159420;23;20028;-74
2021/11/20 03:56:35;;;;;;;18.42;5.10;;;;;;;1.07;79.86;95865.22;6191224;23;20071;-74
2021/11/20 03:59:03;;;;;;;13.18;4.30;;;;;;;1.13;79.77;95852.44;6209024;23;20027;-74
2021/11/20 04:01:31;;;;;;;14.80;4.07;;;;;;;0.94;79.92;95813.13;6190882;23;20025;-75
2021/11/20 04:03:59;;;;;;;12.48;4.57;;;;;;;1.12;79.65;95832.81;6209314;23;20160;-73
2021/11/20 04:06:26;;;;;;;16.43;5.27;;;;;;;1.14;79.63;95829.81;6215727;23;20098;-72
2021/11/20 04:09:01;;;;;;;14.38;5.05;;;;;;;1.14;79.75;95821.75;6209508;23;20020;-73
2021/11/20 04:11:31;;;;;;;16.98;4.50;;;;;;;1.11;79.87;95801.63;6212523;23;20021;-73
2021/11/20 04:13:59;;;;;;;14.13;3.83;;;;;;;1.13;79.76;95798.63;6164161;23;20025;-73
2021/11/20 04:16:27;;;;;;;13.05;3.65;;;;;;;1.09;79.64;95776.94;6161765;23;20450;-73
2021/11/20 04:18:56;;;;;;;11.10;3.88;;;;;;;1.12;79.82;95795.13;6164978;23;20035;-73
2021/11/20 04:21:24;;;;;;;15.50;4.10;;;;;;;1.18;79.58;95762.72;6186951;23;20017;-74
2021/11/20 04:23:53;;;;;;;18.27;4.57;;;;;;;1.14;79.69;95770.63;6167153;23;20379;-74
2021/11/20 04:26:33;;;;;;;36.85;5.30;;;;;;;1.11;79.67;95758.56;6178509;23;20119;-76
2021/11/20 04:29:00;;;;;;;21.55;4.82;;;;;;;1.00;79.82;95741.13;6166534;23;20025;-81
2021/11/20 04:31:30;;;;;;;12.63;3.95;;;;;;;1.11;79.68;95749.72;6154594;23;20468;-85
2021/11/20 04:33:57;;;;;;;18.87;4.53;;;;;;;1.07;79.73;95737.97;6182055;23;20080;-82
2021/11/20 04:36:24;;;;;;;18.65;4.63;;;;;;;1.09;79.95;95733.06;6182028;23;20060;-82
2021/11/20 04:38:51;;;;;;;16.63;4.43;;;;;;;1.05;79.98;95724.03;6166290;23;20025;-80
2021/11/20 04:41:19;;;;;;;13.30;4.45;;;;;;;0.98;79.89;95698.41;6157372;23;20025;-83
2021/11/20 04:43:50;;;;;;;22.02;5.18;;;;;;;1.13;79.92;95717.91;6155843;23;20029;-85
2021/11/20 04:46:17;;;;;;;12.73;4.15;;;;;;;1.13;79.82;95717.91;6140645;23;20107;-82
2021/11/20 04:48:45;;;;;;;9.02;2.75;;;;;;;0.50;79.84;95623.94;6180790;23;20473;-78
2021/11/20 04:51:12;;;;;;;8.88;3.05;;;;;;;1.15;79.89;95712.19;6189556;23;20516;-79
2021/11/20 04:53:41;;;;;;;9.02;2.42;;;;;;;1.16;79.75;95706.50;6192290;23;20029;-83
2021/11/20 04:56:10;;;;;;;9.98;2.78;;;;;;;1.12;79.76;95692.88;6190794;23;20017;-77
2021/11/20 04:58:37;;;;;;;11.52;3.65;;;;;;;1.10;79.80;95672.81;6191885;23;20055;-75
2021/11/20 05:01:08;;;;;;;13.50;3.50;;;;;;;1.18;79.56;95690.84;6189785;23;20021;-75
2021/11/20 05:03:43;;;;;;;11.63;3.78;;;;;;;1.15;79.68;95669.16;6165703;23;20025;-75
2021/11/20 05:06:11;;;;;;;11.27;3.58;;;;;;;1.18;79.84;95676.63;6187822;23;20111;-77
2021/11/20 05:08:38;;;;;;;10.43;3.47;;;;;;;1.21;79.68;95675.97;6164651;23;20048;-75
2021/11/20 05:11:06;;;;;;;;;;;;;;;1.23;79.63;95666.47;6104698;23;20065;-76
2021/11/20 05:13:45;;;;;;;12.38;3.35;;;;;;;1.18;79.67;95658.56;6130951;23;20003;-76
2021/11/20 05:16:15;;;;;;;12.30;3.70;;;;;;;1.05;79.63;95638.75;6188891;23;20017;-76
2021/11/20 05:18:42;;;;;;;11.52;4.00;;;;;;;1.24;79.44;95651.13;6166012;23;20025;-76
2021/11/20 05:21:13;;;;;;;13.32;3.20;;;;;;;1.25;79.32;95642.75;6130261;23;20021;-75
2021/11/20 05:23:43;;;;;;;8.77;3.40;;;;;;;1.27;79.49;95640.53;6190225;23;20589;-76
2021/11/20 05:26:12;;;;;;;;;;;;;;;1.27;79.34;95637.84;6180402;23;20021;-76
2021/11/20 05:28:42;;;;;;;8.38;2.65;;;;;;;1.27;79.13;95634.34;6131831;23;19920;-75
2021/11/20 05:31:09;;;;;;;13.02;3.72;;;;;;;1.30;79.21;95625.63;6156737;23;20021;-76
2021/11/20 05:33:41;;;;;;;9.32;3.53;;;;;;;1.20;79.22;95609.81;6193480;23;20090;-75
2021/11/20 05:36:14;;;;;;;8.57;3.03;;;;;;;1.31;79.19;95624.50;6181781;23;20021;-75
2021/11/20 05:38:41;;;;;;;10.82;3.75;;;;;;;1.31;79.12;95619.13;6192419;23;20099;-74
2021/11/20 05:41:08;;;;;;;13.77;3.90;;;;;;;1.32;79.26;95604.56;6189001;23;20045;-74
2021/11/20 05:43:45;;;;;;;9.30;3.63;;;;;;;1.36;79.19;95612.81;6157014;23;20032;-76
2021/11/20 05:46:26;;;;;;;11.02;3.97;;;;;;;1.34;79.02;95598.88;6188354;23;20053;-75
2021/11/20 05:48:56;;;;;;;9.75;2.92;;;;;;;1.33;79.12;95598.09;6155635;23;20060;-75
2021/11/20 05:51:22;;;;;;;8.27;2.75;;;;;;;1.36;79.08;95600.16;6178565;23;20032;-74
2021/11/20 05:53:49;;;;;;;8.07;2.90;;;;;;;1.37;79.04;95590.97;6164028;23;20035;-76
2021/11/20 05:56:18;;;;;;;7.53;2.75;;;;;;;1.40;79.09;95589.50;6132214;23;20021;-76
2021/11/20 05:58:46;;;;;;;8.95;2.88;;;;;;;1.35;79.11;95578.94;6156459;23;20339;-76
2021/11/20 06:01:14;;;;;;;10.02;2.92;;;;;;;1.33;79.07;95581.16;6164126;23;20028;-76
2021/11/20 06:03:43;;;;;;;7.97;2.58;;;;;;;1.29;78.99;95574.81;6181037;23;20021;-76
2021/11/20 06:06:12;;;;;;;10.90;3.05;;;;;;;1.31;79.28;95580.69;6164154;23;20032;-75
2021/11/20 06:08:38;;;;;;;9.70;3.10;;;;;;;1.32;79.15;95568.81;6181018;23;20356;-76
2021/11/20 06:11:08;;;;;;;9.00;3.03;;;;;;;1.24;79.12;95551.56;6163291;23;20021;-76
2021/11/20 06:13:38;;;;;;;9.32;3.53;;;;;;;1.39;79.10;95566.41;6190260;23;20025;-76
2021/11/20 06:16:29;;;;;;;8.80;2.67;;;;;;;1.37;79.06;95558.66;6181001;23;20052;-75
2021/11/20 06:18:55;;;;;;;9.60;3.35;;;;;;;1.40;79.08;95566.09;6191558;23;20021;-76
2021/11/20 06:21:26;;;;;;;14.18;3.70;;;;;;;1.41;78.92;95561.53;6180795;23;20112;-76
2021/11/20 06:23:52;;;;;;;11.05;3.22;;;;;;;1.34;79.47;95564.69;6165038;23;20017;-76
2021/11/20 06:26:22;;;;;;;10.85;3.08;;;;;;;1.41;79.45;95558.81;6156835;23;20469;-76
2021/11/20 06:28:48;;;;;;;10.02;3.00;;;;;;;1.40;79.16;95539.19;6191608;23;20450;-76
2021/11/20 06:31:23;;;;;;;9.38;3.03;;;;;;;1.46;79.27;95544.38;6164060;23;20063;-76
2021/11/20 06:34:19;;;;;;;12.23;3.10;;;;;;;1.48;79.39;95544.84;6111537;23;20037;-76
2021/11/20 06:36:53;;;;;;;7.88;2.60;;;;;;;1.46;79.30;95545.19;6187592;23;20055;-77
2021/11/20 06:39:35;;;;;;;9.55;2.70;;;;;;;1.29;79.30;95518.31;6190224;23;20041;-75
2021/11/20 06:42:04;;;;;;;11.73;2.53;;;;;;;1.46;79.17;95544.38;6181016;23;20028;-76
2021/11/20 06:44:30;;;;;;;12.10;2.78;;;;;;;1.52;79.22;95535.03;6179991;23;20271;-75
2021/11/20 06:46:57;;;;;;;8.38;2.67;;;;;;;1.48;79.25;95523.31;6160522;23;20053;-76
2021/11/20 06:49:26;;;;;;;8.02;2.25;;;;;;;1.40;79.08;95508.75;6191264;23;20028;-75
2021/11/20 06:51:56;;;;;;;11.45;2.80;;;;;;;1.57;79.23;95534.09;6107043;23;20028;-76
2021/11/20 06:54:43;;;;;;;8.30;2.67;;;;;;;1.42;79.29;95504.66;6158520;23;20494;-75
2021/11/20 07:00:27;;;;;;;9.15;2.72;;;;;;;1.54;79.26;95527.44;6192251;23;20095;-76
2021/11/20 07:03:06;;;;;;;9.27;2.95;;;;;;;1.62;79.07;95523.91;6181869;23;20035;-77
2021/11/20 07:05:34;;;;;;;13.05;3.28;;;;;;;1.76;78.78;95526.44;6178474;23;20366;-76
2021/11/20 07:08:03;;;;;;;18.25;3.22;;;;;;;1.86;78.53;95519.09;6156025;23;20512;-76
2021/11/20 07:10:31;;;;;;;23.63;3.53;;;;;;;1.88;78.20;95520.34;6155564;23;20048;-76
2021/11/20 07:12:58;;;;;;;15.95;4.50;;;;;;;1.95;78.48;95517.16;6181691;23;20303;-76
2021/11/20 07:15:28;;;;;;;15.25;3.67;;;;;;;2.02;78.25;95509.34;6192148;23;20024;-75
2021/11/20 07:17:55;;;;;;;12.30;3.88;;;;;;;1.98;77.93;95498.44;6132517;23;20401;-76
2021/11/20 07:20:40;;;;;;;14.05;3.83;;;;;;;2.08;78.09;95508.06;6192582;23;20017;-76
2021/11/20 07:23:37;;;;;;;14.95;3.97;;;;;;;2.13;77.79;95507.88;6183155;23;20422;-74
2021/11/20 07:26:06;;;;;;;23.80;5.00;;;;;;;2.19;77.64;95505.03;6180364;23;20382;-75
2021/11/20 07:28:33;;;;;;;13.93;3.90;;;;;;;2.25;77.65;95515.25;6189390;23;20028;-75
2021/11/20 07:30:59;;;;;;;15.30;4.85;;;;;;;2.29;77.57;95507.31;6189705;23;20813;-76
2021/11/20 07:33:25;;;;;;;21.10;7.20;;;;;;;2.32;77.48;95505.88;6190794;23;20025;-76
2021/11/20 07:35:56;;;;;;;20.42;7.85;;;;;;;2.34;77.67;95499.06;6139771;23;20362;-76
2021/11/20 07:38:28;;;;;;;19.92;8.32;;;;;;;2.39;77.77;95506.16;6131342;23;20124;-75
2021/11/20 07:40:56;;;;;;;18.40;7.93;;;;;;;2.51;77.33;95513.56;6164786;23;20028;-75
2021/11/20 07:43:22;;;;;;;18.88;7.45;;;;;;;2.53;77.29;95509.41;6130390;23;20116;-76
2021/11/20 07:46:13;;;;;;;22.27;6.60;;;;;;;2.60;77.03;95495.38;6160587;23;20025;-76
2021/11/20 07:48:40;;;;;;;16.45;5.10;;;;;;;2.71;76.93;95503.09;6188277;23;20489;-76
2021/11/20 07:51:12;;;;;;;15.43;4.13;;;;;;;2.78;77.00;95506.84;6188313;23;20044;-75
2021/11/20 07:53:45;;;;;;;10.85;3.67;;;;;;;2.82;76.82;95509.69;6155520;23;20028;-75
2021/11/20 07:56:16;;;;;;;8.15;3.30;;;;;;;2.78;77.29;95492.56;6180788;23;20024;-76
2021/11/20 07:58:44;;;;;;;8.13;3.00;;;;;;;2.78;77.27;95501.47;6166114;23;20087;-75
2021/11/20 08:01:12;;;;;;;12.80;3.30;;;;;;;2.84;77.27;95494.72;6181733;23;20031;-74
2021/11/20 08:03:41;;;;;;;7.47;2.83;;;;;;;2.76;77.22;95481.31;6182036;23;20029;-76
2021/11/20 08:06:26;;;;;;;10.65;3.10;;;;;;;2.93;77.04;95505.47;6191153;23;20067;-74
2021/11/20 08:08:52;;;;;;;7.70;2.88;;;;;;;2.93;77.01;95505.47;6194215;23;20109;-75
2021/11/20 08:11:39;;;;;;;9.60;2.67;;;;;;;3.05;77.12;95520.94;6156502;23;20270;-76
2021/11/20 08:14:06;;;;;;;13.23;3.28;;;;;;;3.07;77.02;95507.91;6206846;23;20536;-76
2021/11/20 08:16:55;;;;;;;10.52;2.80;;;;;;;3.14;76.84;95510.06;6157093;23;20108;-75
2021/11/20 08:19:37;;;;;;;9.43;2.70;;;;;;;3.10;77.28;95514.53;6182416;23;20032;-76
2021/11/20 08:22:42;;;;;;;8.95;2.72;;;;;;;3.14;77.30;95515.47;6075141;23;20022;-77
2021/11/20 08:25:16;;;;;;;6.90;2.30;;;;;;;3.21;77.30;95499.50;6069450;23;20034;-76
2021/11/20 08:27:46;;;;;;;6.85;2.47;;;;;;;3.24;76.76;95506.94;6092809;23;20027;-76
2021/11/20 08:30:21;;;;;;;8.70;2.58;;;;;;;3.34;76.62;95513.81;6069216;23;20026;-75
2021/11/20 08:32:51;;;;;;;8.15;2.70;;;;;;;3.43;76.37;95521.06;6069046;23;20023;-77
2021/11/20 08:35:39;;;;;;;9.30;2.88;;;;;;;3.50;76.13;95534.81;6157377;23;20474;-77
2021/11/20 08:38:29;;;;;;;9.85;3.13;;;;;;;3.49;76.40;95538.63;6191109;23;20024;-75
2021/11/20 08:41:08;;;;;;;9.60;3.17;;;;;;;3.46;75.90;95517.69;6165902;23;20097;-76
2021/11/20 08:43:39;;;;;;;9.35;2.72;;;;;;;3.51;76.05;95537.19;6107956;23;20466;-78
2021/11/20 08:46:24;;;;;;;;;;;;;;;3.50;76.01;95535.59;6181908;23;20458;-76
2021/11/20 08:48:51;;;;;;;11.10;2.80;;;;;;;3.53;75.74;95545.75;6132182;23;19920;-77
2021/11/20 08:51:20;;;;;;;7.68;2.70;;;;;;;3.53;75.92;95548.44;6156998;23;20040;-78
2021/11/20 08:53:50;;;;;;;9.75;2.60;;;;;;;3.59;75.70;95548.22;6181896;23;20033;-78
2021/11/20 08:56:17;;;;;;;8.35;2.83;;;;;;;3.54;75.30;95552.72;6188443;23;20176;-76
2021/11/20 08:59:00;;;;;;;7.85;2.60;;;;;;;3.48;75.35;95547.84;6131717;23;20029;-77
2021/11/20 09:01:51;;;;;;;9.25;2.90;;;;;;;3.48;75.42;95564.88;6187618;23;20104;-76
2021/11/20 09:04:39;;;;;;;8.05;2.45;;;;;;;3.51;75.52;95569.59;6192239;23;20430;-76
2021/11/20 09:07:09;;;;;;;7.63;2.40;;;;;;;3.52;75.14;95551.50;6161781;23;20032;-76
2021/11/20 09:09:49;;;;;;;6.68;2.30;;;;;;;3.62;75.08;95577.28;6167029;23;20017;-76
2021/11/20 09:12:21;;;;;;;10.80;2.42;;;;;;;3.55;74.81;95567.03;6190924;23;20028;-77
2021/11/20 09:14:52;;;;;;;6.20;1.95;;;;;;;3.52;74.86;95563.06;6155437;23;20079;-77
2021/11/20 09:17:23;;;;;;;7.53;2.40;;;;;;;3.59;74.83;95575.22;6185285;23;20025;-76
2021/11/20 09:19:49;;;;;;;;;;;;;;;3.59;74.68;95581.44;6192367;23;20361;-76
2021/11/20 09:22:20;;;;;;;6.75;2.30;;;;;;;3.56;74.67;95579.41;6204400;23;19920;-78
2021/11/20 09:24:53;;;;;;;7.63;2.45;;;;;;;3.50;74.60;95578.81;6132839;23;20112;-77
2021/11/20 09:27:29;;;;;;;8.52;2.08;;;;;;;3.59;74.52;95594.94;6183062;23;20024;-77
2021/11/20 09:29:57;;;;;;;6.85;2.28;;;;;;;3.61;74.33;95600.81;6179446;23;20025;-76
2021/11/20 09:32:25;;;;;;;5.32;1.70;;;;;;;3.49;74.12;95589.94;6158469;23;20410;-77
2021/11/20 09:34:57;;;;;;;8.13;1.92;;;;;;;3.54;74.45;95595.94;6179704;23;20028;-77
2021/11/20 09:37:43;;;;;;;5.20;1.90;;;;;;;3.48;74.50;95609.97;6184559;23;20017;-79
2021/11/20 09:40:24;;;;;;;9.93;2.20;;;;;;;3.32;74.39;95580.09;6155926;23;20425;-77
2021/11/20 09:42:54;;;;;;;6.63;2.20;;;;;;;3.51;74.33;95623.59;6156808;23;20025;-77
2021/11/20 09:45:27;;;;;;;9.95;2.05;;;;;;;3.44;74.52;95628.75;6132037;23;20142;-76
2021/11/20 09:48:09;;;;;;;8.73;2.45;;;;;;;3.44;74.49;95630.66;6205336;23;20386;-79
2021/11/20 09:50:42;;;;;;;8.60;2.30;;;;;;;3.42;74.53;95636.38;6205303;23;20449;-79
2021/11/20 09:53:13;;;;;;;5.80;2.05;;;;;;;3.44;74.18;95644.16;6156035;23;20051;-77
2021/11/20 09:55:43;;;;;;;8.27;1.85;;;;;;;3.38;74.31;95638.16;6182822;23;20458;-78
2021/11/20 09:58:14;;;;;;;6.70;1.98;;;;;;;3.51;74.15;95657.91;6192965;23;20028;-81
2021/11/20 10:01:05;;;;;;;6.18;2.00;;;;;;;3.46;74.02;95663.53;6155895;23;20048;-84
2021/11/20 10:03:43;;;;;;;8.93;2.08;;;;;;;3.44;73.83;95674.69;6205792;23;20032;-76
2021/11/20 10:06:12;;;;;;;9.27;2.60;;;;;;;3.48;73.85;95674.78;6181433;23;20133;-76
2021/11/20 10:08:40;;;;;;;11.88;2.60;;;;;;;3.37;73.70;95669.81;6166414;23;20048;-77
2021/11/20 10:11:22;;;;;;;6.43;2.20;;;;;;;3.53;73.62;95688.13;6181612;23;20025;-82
2021/11/20 10:13:54;;;;;;;9.52;2.53;;;;;;;3.54;73.34;95701.28;6186122;23;20036;-78
2021/11/20 10:16:24;;;;;;;9.50;2.70;;;;;;;3.33;73.67;95690.44;6212789;23;20029;-76
2021/11/20 10:18:54;;;;;;;10.30;2.88;;;;;;;3.45;73.82;95710.56;6212927;23;20021;-76
2021/11/20 10:21:25;;;;;;;8.77;3.08;;;;;;;3.43;73.31;95705.47;6214104;23;20027;-76
2021/11/20 10:23:59;;;;;;;10.63;2.55;;;;;;;3.52;73.40;95719.72;6186306;23;20020;-77
2021/11/20 10:26:42;;;;;;;7.65;2.35;;;;;;;3.48;73.43;95726.91;6220797;23;20021;-76
2021/11/20 10:29:24;;;;;;;10.02;3.25;;;;;;;3.38;73.53;95730.78;6211831;23;20032;-75
2021/11/20 10:32:05;;;;;;;8.13;2.60;;;;;;;3.38;73.36;95735.38;6219016;23;20024;-76
2021/11/20 10:34:35;;;;;;;6.68;1.77;;;;;;;3.25;73.46;95719.09;6222893;23;20099;-76
2021/11/20 10:37:05;;;;;;;7.03;2.13;;;;;;;3.44;73.33;95735.97;6186785;23;20021;-75
2021/11/20 10:39:47;;;;;;;7.03;2.20;;;;;;;3.37;73.22;95748.09;6221867;23;20044;-76
2021/11/20 10:42:16;;;;;;;9.25;2.30;;;;;;;3.29;73.09;95745.47;6215165;23;20025;-76
2021/11/20 10:44:46;;;;;;;7.78;2.15;;;;;;;3.34;73.36;95762.25;6196538;23;20362;-76
2021/11/20 10:47:29;;;;;;;8.68;2.50;;;;;;;3.41;73.15;95767.13;6217153;23;20027;-77
2021/11/20 10:50:18;;;;;;;9.10;3.00;;;;;;;3.37;72.67;95755.41;6211404;23;20048;-75
2021/11/20 10:53:17;;;;;;;9.45;2.42;;;;;;;3.34;73.11;95764.16;6212037;23;20070;-76
2021/11/20 10:55:58;;;;;;;8.93;2.72;;;;;;;3.27;72.91;95780.88;6222995;23;20361;-77
2021/11/20 10:58:57;;;;;;;8.32;2.40;;;;;;;3.34;72.81;95789.25;6161506;23;20024;-75
2021/11/20 11:01:36;;;;;;;9.88;2.22;;;;;;;3.33;72.81;95808.47;6193409;23;20021;-74
2021/11/20 11:04:26;;;;;;;8.95;2.33;;;;;;;3.30;72.63;95798.34;6187168;23;20021;-75
2021/11/20 11:06:58;;;;;;;8.95;2.30;;;;;;;3.31;72.51;95811.50;6210897;23;20406;-76
2021/11/20 11:09:41;;;;;;;7.00;1.60;;;;;;;3.32;72.71;95812.31;6195409;23;20016;-77
2021/11/20 11:12:14;;;;;;;6.63;1.85;;;;;;;3.40;72.34;95823.06;6171682;23;20060;-76
2021/11/20 11:15:01;;;;;;;10.50;2.03;;;;;;;3.41;72.09;95840.03;6196369;23;20027;-74
2021/11/20 11:17:41;;;;;;;10.27;2.22;;;;;;;3.25;72.37;95818.22;6185357;23;20038;-74
2021/11/20 11:20:18;;;;;;;11.88;2.15;;;;;;;3.28;72.38;95847.25;6211397;23;20075;-74
2021/11/20 11:22:50;;;;;;;7.55;2.33;;;;;;;3.22;72.25;95835.06;6213010;23;20048;-74
2021/11/20 11:25:21;;;;;;;5.70;1.90;;;;;;;3.32;72.43;95858.19;6222631;23;20016;-76
2021/11/20 11:28:23;;;;;;;8.13;1.80;;;;;;;3.35;72.11;95866.44;6211358;23;20365;-76
2021/11/20 11:31:10;;;;;;;8.98;2.38;;;;;;;3.33;72.03;95867.88;6224146;23;20048;-75
2021/11/20 11:33:39;;;;;;;7.15;2.20;;;;;;;3.23;72.18;95882.53;6219367;23;20091;-72
2021/11/20 11:36:16;;;;;;;13.15;2.17;;;;;;;3.33;72.24;95889.50;6223102;23;20111;-75
2021/11/20 11:39:11;;;;;;;11.80;2.38;;;;;;;3.26;72.18;95895.38;6213993;23;20449;-74
2021/11/20 11:41:51;;;;;;;12.43;2.60;;;;;;;3.24;71.81;95901.09;6213029;23;20055;-70
2021/11/20 11:44:29;;;;;;;6.28;1.83;;;;;;;3.20;72.23;95921.75;6217265;23;20024;-72
2021/11/20 11:46:56;;;;;;;;;;;;;;;3.28;72.11;95922.03;6225987;23;20025;-72
2021/11/20 11:49:48;;;;;;;10.07;2.10;;;;;;;3.20;72.08;95927.16;6217331;23;19946;-72
2021/11/20 11:52:45;;;;;;;7.80;2.08;;;;;;;3.18;71.82;95933.97;6225136;23;20134;-75
2021/11/20 11:55:33;;;;;;;6.72;1.92;;;;;;;3.28;71.66;95941.75;6204284;23;20028;-75
2021/11/20 11:58:07;;;;;;;;;;;;;;;3.32;71.58;95967.00;6212948;23;20033;-75
2021/11/20 12:00:37;;;;;;;10.77;2.05;;;;;;;3.19;71.60;95971.47;6186672;23;20002;-74
2021/11/20 12:03:11;;;;;;;13.68;1.85;;;;;;;3.31;71.62;95988.94;6163033;23;20410;-74
2021/11/20 12:05:42;;;;;;;9.88;2.38;;;;;;;3.30;71.72;95990.81;6224488;23;20083;-75
2021/11/20 12:08:39;;;;;;;10.13;2.13;;;;;;;3.26;71.83;95996.06;6196801;23;20099;-74
2021/11/20 12:11:11;;;;;;;10.98;2.60;;;;;;;3.29;71.76;96001.97;6166926;23;20411;-75
2021/11/20 12:13:39;;;;;;;13.02;2.88;;;;;;;3.29;72.04;96000.03;6217495;23;20029;-76